Decatur, Alabama
Current Conditions -  °F | °C
As of 9:53 PM on Saturday 22 Nov 2014 (Local Time) from KDCU Reporting Station
Overcast Overcast  
Wind Chill: 59°   Ceiling: 4200
Heat Index: 59°   Visibility: 10mi
Dew Point: 43°   Wind: 12mph
Humidity: 55%   Direction: 140°SE
Pressure: 30.11"   Gusts: NA
Location:  34.61°N, 86.98°W
Report Text: KDCU 230353Z AUTO 14010KT 10SM SCT033 OVC042 15/06 A3011 RMK AO2 SLP194 T01500061
Loading
Personal Weather Stations






























Interactive Weather Map New forecast layout! Learn more

10-Day Weather Forecast

Advertisements
Track Severe Weather on mobile